sensor_id;sensor_type;location;lat;lon;timestamp;pressure;altitude;pressure_sealevel;temperature;humidity
43691;BME280;29293;52.190;21.226;2023-02-19T00:09:51;99803.64;;;1.88;100.00
43691;BME280;29293;52.190;21.226;2023-02-19T00:25:00;99792.22;;;1.80;100.00
43691;BME280;29293;52.190;21.226;2023-02-19T00:40:11;99789.30;;;1.78;100.00
43691;BME280;29293;52.190;21.226;2023-02-19T00:55:21;99774.50;;;1.78;100.00
43691;BME280;29293;52.190;21.226;2023-02-19T01:10:30;99776.95;;;1.83;100.00
43691;BME280;29293;52.190;21.226;2023-02-19T01:25:40;99775.67;;;1.88;100.00
43691;BME280;29293;52.190;21.226;2023-02-19T01:40:56;99764.33;;;1.91;100.00
43691;BME280;29293;52.190;21.226;2023-02-19T01:56:09;99769.61;;;1.96;100.00
43691;BME280;29293;52.190;21.226;2023-02-19T02:11:20;99770.34;;;1.97;100.00
43691;BME280;29293;52.190;21.226;2023-02-19T02:26:42;99773.36;;;1.98;100.00
43691;BME280;29293;52.190;21.226;2023-02-19T02:41:57;99767.30;;;1.96;100.00
43691;BME280;29293;52.190;21.226;2023-02-19T02:57:25;99773.78;;;1.95;100.00
43691;BME280;29293;52.190;21.226;2023-02-19T03:12:35;99772.24;;;1.94;100.00
43691;BME280;29293;52.190;21.226;2023-02-19T03:28:01;99763.00;;;1.94;100.00
43691;BME280;29293;52.190;21.226;2023-02-19T03:43:15;99768.33;;;1.92;100.00
43691;BME280;29293;52.190;21.226;2023-02-19T03:58:29;99755.11;;;1.82;100.00
43691;BME280;29293;52.190;21.226;2023-02-19T04:13:45;99746.05;;;1.71;100.00
43691;BME280;29293;52.190;21.226;2023-02-19T04:28:56;99745.52;;;1.59;100.00
43691;BME280;29293;52.190;21.226;2023-02-19T04:44:05;99729.52;;;1.41;100.00
43691;BME280;29293;52.190;21.226;2023-02-19T04:59:15;99724.30;;;1.18;100.00
43691;BME280;29293;52.190;21.226;2023-02-19T05:14:26;99735.02;;;1.04;100.00
43691;BME280;29293;52.190;21.226;2023-02-19T05:29:35;99720.98;;;0.95;100.00
43691;BME280;29293;52.190;21.226;2023-02-19T05:44:44;99718.86;;;0.95;100.00
43691;BME280;29293;52.190;21.226;2023-02-19T05:59:53;99707.73;;;1.00;100.00
43691;BME280;29293;52.190;21.226;2023-02-19T06:15:02;99704.35;;;0.99;100.00
43691;BME280;29293;52.190;21.226;2023-02-19T06:30:15;99705.39;;;1.08;100.00
43691;BME280;29293;52.190;21.226;2023-02-19T06:45:24;99722.38;;;1.28;100.00
43691;BME280;29293;52.190;21.226;2023-02-19T07:00:34;99718.30;;;1.52;100.00
43691;BME280;29293;52.190;21.226;2023-02-19T07:15:44;99717.67;;;1.78;100.00
43691;BME280;29293;52.190;21.226;2023-02-19T07:30:59;99728.63;;;1.91;100.00
43691;BME280;29293;52.190;21.226;2023-02-19T07:46:11;99737.74;;;2.01;100.00
43691;BME280;29293;52.190;21.226;2023-02-19T08:01:22;99743.23;;;2.19;100.00
43691;BME280;29293;52.190;21.226;2023-02-19T08:16:53;99747.08;;;2.46;100.00
43691;BME280;29293;52.190;21.226;2023-02-19T08:32:02;99755.37;;;2.47;100.00
43691;BME280;29293;52.190;21.226;2023-02-19T08:47:11;99769.65;;;2.47;100.00
43691;BME280;29293;52.190;21.226;2023-02-19T09:02:21;99774.04;;;2.46;100.00
43691;BME280;29293;52.190;21.226;2023-02-19T09:17:30;99773.40;;;2.59;100.00
43691;BME280;29293;52.190;21.226;2023-02-19T09:32:39;99774.64;;;2.67;100.00
43691;BME280;29293;52.190;21.226;2023-02-19T09:47:48;99775.08;;;2.85;100.00
43691;BME280;29293;52.190;21.226;2023-02-19T10:03:03;99788.24;;;2.96;100.00
43691;BME280;29293;52.190;21.226;2023-02-19T10:18:24;99788.67;;;3.31;100.00
43691;BME280;29293;52.190;21.226;2023-02-19T10:33:34;99773.27;;;4.23;100.00
43691;BME280;29293;52.190;21.226;2023-02-19T10:48:57;99791.73;;;4.56;100.00
43691;BME280;29293;52.190;21.226;2023-02-19T11:04:17;99802.05;;;4.38;100.00
43691;BME280;29293;52.190;21.226;2023-02-19T11:19:30;99799.10;;;4.55;100.00
43691;BME280;29293;52.190;21.226;2023-02-19T11:34:44;99806.80;;;4.73;100.00
43691;BME280;29293;52.190;21.226;2023-02-19T11:49:57;99806.09;;;4.64;100.00
43691;BME280;29293;52.190;21.226;2023-02-19T12:05:34;99807.69;;;4.63;100.00
43691;BME280;29293;52.190;21.226;2023-02-19T12:20:55;99821.08;;;4.94;100.00
43691;BME280;29293;52.190;21.226;2023-02-19T12:36:18;99836.73;;;5.02;100.00
43691;BME280;29293;52.190;21.226;2023-02-19T12:51:38;99857.73;;;4.67;100.00
43691;BME280;29293;52.190;21.226;2023-02-19T13:06:54;99876.73;;;4.27;100.00
43691;BME280;29293;52.190;21.226;2023-02-19T13:22:17;99879.54;;;4.48;100.00
43691;BME280;29293;52.190;21.226;2023-02-19T13:37:54;99876.16;;;5.47;100.00
43691;BME280;29293;52.190;21.226;2023-02-19T14:09:44;99916.27;;;4.68;100.00
43691;BME280;29293;52.190;21.226;2023-02-19T14:29:55;99943.90;;;4.16;100.00
43691;BME280;29293;52.190;21.226;2023-02-19T14:45:09;99954.16;;;3.96;100.00
43691;BME280;29293;52.190;21.226;2023-02-19T15:00:53;99962.27;;;3.90;100.00
43691;BME280;29293;52.190;21.226;2023-02-19T15:16:22;99988.86;;;3.66;100.00
43691;BME280;29293;52.190;21.226;2023-02-19T15:31:33;100008.63;;;3.53;100.00
43691;BME280;29293;52.190;21.226;2023-02-19T15:46:50;100026.71;;;3.39;100.00
43691;BME280;29293;52.190;21.226;2023-02-19T16:02:01;100053.63;;;3.24;100.00
43691;BME280;29293;52.190;21.226;2023-02-19T16:17:16;100075.09;;;2.88;100.00
43691;BME280;29293;52.190;21.226;2023-02-19T16:32:28;100102.71;;;2.62;100.00
43691;BME280;29293;52.190;21.226;2023-02-19T16:47:39;100125.10;;;2.34;100.00
43691;BME280;29293;52.190;21.226;2023-02-19T17:03:00;100144.70;;;2.11;100.00
43691;BME280;29293;52.190;21.226;2023-02-19T17:18:16;100150.23;;;2.24;100.00
43691;BME280;29293;52.190;21.226;2023-02-19T17:33:25;100157.31;;;2.37;100.00
43691;BME280;29293;52.190;21.226;2023-02-19T17:48:33;100180.82;;;2.42;100.00
43691;BME280;29293;52.190;21.226;2023-02-19T18:03:42;100209.02;;;2.19;100.00
43691;BME280;29293;52.190;21.226;2023-02-19T18:18:51;100235.02;;;1.99;100.00
43691;BME280;29293;52.190;21.226;2023-02-19T18:34:00;100259.88;;;1.86;100.00
43691;BME280;29293;52.190;21.226;2023-02-19T18:49:10;100264.65;;;1.75;100.00
43691;BME280;29293;52.190;21.226;2023-02-19T19:04:21;100264.62;;;1.51;100.00
43691;BME280;29293;52.190;21.226;2023-02-19T19:19:32;100294.59;;;1.33;100.00
43691;BME280;29293;52.190;21.226;2023-02-19T19:34:42;100313.94;;;1.13;100.00
43691;BME280;29293;52.190;21.226;2023-02-19T19:49:52;100337.77;;;0.99;100.00
43691;BME280;29293;52.190;21.226;2023-02-19T20:05:02;100356.52;;;0.89;100.00
43691;BME280;29293;52.190;21.226;2023-02-19T20:20:14;100362.67;;;0.69;100.00
43691;BME280;29293;52.190;21.226;2023-02-19T20:35:24;100365.92;;;0.51;100.00
43691;BME280;29293;52.190;21.226;2023-02-19T20:50:36;100384.77;;;0.35;100.00
43691;BME280;29293;52.190;21.226;2023-02-19T21:05:48;100409.77;;;0.24;100.00
43691;BME280;29293;52.190;21.226;2023-02-19T21:20:59;100423.86;;;0.05;100.00
43691;BME280;29293;52.190;21.226;2023-02-19T21:36:10;100440.85;;;-0.04;100.00
43691;BME280;29293;52.190;21.226;2023-02-19T21:51:26;100434.26;;;-0.13;100.00
43691;BME280;29293;52.190;21.226;2023-02-19T22:06:36;100444.70;;;-0.18;100.00
43691;BME280;29293;52.190;21.226;2023-02-19T22:21:47;100451.40;;;-0.28;100.00
43691;BME280;29293;52.190;21.226;2023-02-19T22:36:56;100473.63;;;-0.38;100.00
43691;BME280;29293;52.190;21.226;2023-02-19T22:52:08;100471.16;;;-0.46;100.00
43691;BME280;29293;52.190;21.226;2023-02-19T23:07:18;100470.17;;;-0.52;100.00
43691;BME280;29293;52.190;21.226;2023-02-19T23:22:30;100459.09;;;-0.31;100.00
43691;BME280;29293;52.190;21.226;2023-02-19T23:37:41;100465.38;;;-0.08;100.00
43691;BME280;29293;52.190;21.226;2023-02-19T23:52:51;100477.00;;;0.09;100.00
